Time;durP1;ratioP1;P1;durP2;ratioP2;P2;SDS_P1;SDS_P2;PMS_P1;PMS_P2;Temp;Humidity;BMP_temperature;BMP_pressure;BME280_temperature;BME280_humidity;BME280_pressure;Samples;Min_cycle;Max_cycle;Signal;HPM_P1;HPM_P2
2022/12/16 00:00:19;;;;;;;69.57;32.35;;;;;;;6.18;80.75;99789.84;3143906;28;20052;-73
2022/12/16 00:01:52;;;;;;;75.40;32.40;;;;;;;6.18;80.65;99781.25;3145608;28;20052;-73
2022/12/16 00:03:24;;;;;;;75.55;31.25;;;;;;;6.05;80.68;99754.91;3154133;28;20052;-72
2022/12/16 00:04:57;;;;;;;66.70;29.00;;;;;;;6.17;80.76;99764.88;3143576;28;20044;-73
2022/12/16 00:06:32;;;;;;;67.32;31.13;;;;;;;6.20;80.84;99769.13;3143820;28;20080;-73
2022/12/16 00:08:05;;;;;;;68.93;32.60;;;;;;;6.14;80.78;99760.66;3144229;28;20048;-74
2022/12/16 00:09:37;;;;;;;74.40;32.28;;;;;;;6.18;80.61;99771.75;3143437;28;20044;-73
2022/12/16 00:11:10;;;;;;;77.30;32.05;;;;;;;5.56;80.76;99673.47;3144750;28;20146;-73
2022/12/16 00:12:41;;;;;;;70.07;32.30;;;;;;;6.15;80.86;99764.06;3147866;28;20044;-73
2022/12/16 00:14:13;;;;;;;71.43;32.00;;;;;;;6.14;80.95;99771.00;3147831;28;20067;-73
2022/12/16 00:15:45;;;;;;;69.13;31.08;;;;;;;6.09;81.11;99766.84;3147852;28;20129;-73
2022/12/16 00:17:18;;;;;;;72.90;31.10;;;;;;;6.12;81.12;99780.56;3147526;28;20057;-73
2022/12/16 00:18:50;;;;;;;74.20;31.40;;;;;;;6.07;81.13;99779.81;3147954;28;20052;-72
2022/12/16 00:20:22;;;;;;;74.45;33.05;;;;;;;6.08;81.34;99781.50;3147495;28;20048;-73
2022/12/16 00:21:54;;;;;;;65.97;30.75;;;;;;;6.09;81.31;99772.00;3147800;28;20048;-73
2022/12/16 00:23:27;;;;;;;65.32;30.42;;;;;;;6.09;81.26;99775.47;3147571;28;20517;-73
2022/12/16 00:24:59;;;;;;;62.85;29.15;;;;;;;6.07;81.26;99774.66;3147961;28;20041;-73
2022/12/16 00:26:31;;;;;;;67.70;29.40;;;;;;;6.05;81.29;99779.00;3147871;28;20479;-73
2022/12/16 00:28:03;;;;;;;69.50;28.50;;;;;;;5.59;81.08;99706.97;3147873;28;20113;-73
2022/12/16 00:29:35;;;;;;;60.90;28.17;;;;;;;5.53;81.14;99705.44;3147898;28;20105;-72
2022/12/16 00:31:07;;;;;;;60.80;27.75;;;;;;;5.85;81.29;99753.66;3147464;28;20429;-73
2022/12/16 00:32:40;;;;;;;56.65;27.65;;;;;;;5.95;81.47;99764.63;3148087;28;20098;-73
2022/12/16 00:34:12;;;;;;;58.20;26.67;;;;;;;5.98;81.63;99780.06;3147763;28;20067;-73
2022/12/16 00:35:46;;;;;;;60.72;28.15;;;;;;;5.88;81.57;99752.72;3147801;28;20052;-74
2022/12/16 00:37:17;;;;;;;57.65;26.70;;;;;;;5.96;81.86;99781.84;3147743;28;20052;-73
2022/12/16 00:38:51;;;;;;;62.45;27.20;;;;;;;5.95;81.97;99780.16;3147958;28;20057;-72
2022/12/16 00:40:24;;;;;;;63.30;27.65;;;;;;;5.63;81.96;99727.53;3147797;28;20095;-73
2022/12/16 00:41:55;;;;;;;62.80;26.67;;;;;;;5.96;81.96;99781.84;3147990;28;20532;-73
2022/12/16 00:43:27;;;;;;;58.30;27.30;;;;;;;5.97;82.18;99785.25;3147980;28;20127;-73
2022/12/16 00:44:59;;;;;;;59.03;28.05;;;;;;;5.97;82.12;99782.69;3148100;28;20199;-73
2022/12/16 00:46:31;;;;;;;54.45;26.45;;;;;;;5.92;82.13;99783.63;3147740;28;20048;-73
2022/12/16 00:48:05;;;;;;;63.97;27.33;;;;;;;5.94;81.93;99788.78;3148367;28;20049;-73
2022/12/16 00:49:37;;;;;;;59.30;26.65;;;;;;;5.42;82.04;99702.28;3147760;28;20117;-73
2022/12/16 00:51:08;;;;;;;59.58;27.88;;;;;;;5.90;82.15;99774.22;3148100;28;20084;-73
2022/12/16 00:52:40;;;;;;;62.55;26.80;;;;;;;5.88;82.13;99763.06;3147885;28;20485;-72
2022/12/16 00:54:12;;;;;;;66.28;28.33;;;;;;;5.83;82.07;99747.69;3147872;28;20040;-74
2022/12/16 00:55:45;;;;;;;66.70;28.23;;;;;;;6.04;82.27;99773.88;3148059;28;20049;-74
2022/12/16 00:57:17;;;;;;;63.65;27.85;;;;;;;5.83;82.01;99741.69;3147606;28;20150;-73
2022/12/16 00:58:49;;;;;;;59.85;27.17;;;;;;;5.89;82.19;99751.84;3148064;28;20082;-74
2022/12/16 01:00:21;;;;;;;66.70;28.13;;;;;;;6.05;81.87;99773.81;3147693;28;20060;-74
2022/12/16 01:01:53;;;;;;;58.95;27.58;;;;;;;6.01;81.95;99755.88;3150268;28;20044;-75
2022/12/16 01:03:26;;;;;;;57.40;26.70;;;;;;;5.97;81.97;99752.50;3152902;28;20041;-74
2022/12/16 01:04:58;;;;;;;62.90;27.75;;;;;;;6.05;82.03;99763.50;3147856;28;20056;-74
2022/12/16 01:06:31;;;;;;;57.13;27.63;;;;;;;5.83;81.84;99718.41;3145181;28;20049;-73
2022/12/16 01:08:03;;;;;;;60.45;26.90;;;;;;;6.01;81.97;99745.53;3147962;28;20753;-74
2022/12/16 01:09:35;;;;;;;62.47;27.60;;;;;;;6.01;81.90;99741.22;3147745;28;20048;-73
2022/12/16 01:11:10;;;;;;;58.13;27.23;;;;;;;6.08;81.76;99752.22;3147840;28;20044;-73
2022/12/16 01:12:41;;;;;;;63.80;27.50;;;;;;;5.99;81.90;99740.41;3135618;28;20315;-74
2022/12/16 01:14:13;;;;;;;61.45;26.98;;;;;;;5.89;81.84;99733.75;3147897;28;20513;-73
2022/12/16 01:15:45;;;;;;;64.43;28.60;;;;;;;5.99;81.82;99761.06;3147724;28;20564;-73
2022/12/16 01:17:17;;;;;;;56.72;25.13;;;;;;;6.05;81.83;99776.41;3147789;28;20044;-73
2022/12/16 01:18:50;;;;;;;54.67;25.48;;;;;;;6.05;81.78;99791.94;3147655;28;20078;-73
2022/12/16 01:20:22;;;;;;;61.72;27.73;;;;;;;6.02;82.04;99799.75;3147866;28;20135;-73
2022/12/16 01:21:54;;;;;;;61.85;28.25;;;;;;;6.01;81.91;99797.25;3147634;28;20071;-73
2022/12/16 01:23:26;;;;;;;60.17;26.63;;;;;;;5.92;81.86;99786.22;3144603;28;20082;-73
2022/12/16 01:24:58;;;;;;;60.72;27.38;;;;;;;5.99;81.96;99802.44;3145461;28;20117;-74
2022/12/16 01:26:30;;;;;;;58.97;26.52;;;;;;;5.95;81.82;99800.81;3145763;28;20083;-74
2022/12/16 01:28:02;;;;;;;57.70;26.27;;;;;;;5.82;81.85;99773.56;3145654;28;20056;-73
2022/12/16 01:29:34;;;;;;;59.40;25.77;;;;;;;5.99;82.01;99811.94;3145587;28;20044;-74
2022/12/16 01:31:06;;;;;;;55.20;25.90;;;;;;;5.99;81.80;99809.34;3145673;28;20048;-73
2022/12/16 01:32:38;;;;;;;58.55;27.00;;;;;;;5.97;82.14;99801.63;3145704;28;20109;-73
2022/12/16 01:34:11;;;;;;;58.97;27.10;;;;;;;5.86;81.96;99775.19;3145651;28;20048;-73
2022/12/16 01:35:43;;;;;;;57.03;27.67;;;;;;;5.97;82.03;99795.59;3145659;28;20048;-73
2022/12/16 01:37:15;;;;;;;58.20;26.10;;;;;;;5.97;82.08;99801.63;3145593;28;20101;-73
2022/12/16 01:38:47;;;;;;;59.47;27.20;;;;;;;5.91;82.12;99788.81;3145765;28;20078;-73
2022/12/16 01:40:22;;;;;;;60.38;27.25;;;;;;;5.98;82.08;99797.31;3145670;28;20097;-74
2022/12/16 01:41:54;;;;;;;58.60;25.85;;;;;;;5.92;81.95;99780.19;3133216;28;20044;-74
2022/12/16 01:43:28;;;;;;;54.50;26.92;;;;;;;5.98;82.08;99789.56;3145209;28;20121;-73
2022/12/16 01:45:32;;;;;;;60.03;26.30;;;;;;;5.72;81.72;99749.69;3145944;28;20044;-74
2022/12/16 01:47:06;;;;;;;64.60;26.08;;;;;;;5.96;81.97;99791.34;3145118;28;20434;-73
2022/12/16 01:48:46;;;;;;;62.55;27.15;;;;;;;5.93;82.04;99789.66;3145640;28;20552;-74
2022/12/16 01:50:19;;;;;;;61.45;27.58;;;;;;;5.91;82.00;99783.66;3145745;28;20053;-73
2022/12/16 01:51:51;;;;;;;;;;;;;;;5.82;82.08;99778.72;3142198;28;20374;-74
2022/12/16 01:53:22;;;;;;;58.78;26.40;;;;;;;5.78;82.21;99766.78;3145453;28;19974;-73
2022/12/16 01:54:58;;;;;;;60.55;26.45;;;;;;;5.73;82.16;99755.72;3145460;28;20060;-74
2022/12/16 01:56:33;;;;;;;57.05;27.42;;;;;;;5.43;82.32;99706.53;3145700;28;20056;-73
2022/12/16 01:58:09;;;;;;;62.35;28.15;;;;;;;5.70;82.28;99756.63;3145230;28;20106;-73
2022/12/16 01:59:44;;;;;;;59.22;27.60;;;;;;;5.83;82.19;99770.09;3145366;28;20060;-72
2022/12/16 02:01:16;;;;;;;65.97;27.38;;;;;;;5.82;82.25;99755.47;3145392;28;20162;-73
2022/12/16 02:02:49;;;;;;;55.28;27.65;;;;;;;5.74;82.24;99729.84;3143816;28;20060;-73
2022/12/16 02:04:21;;;;;;;68.97;30.30;;;;;;;5.61;82.44;99713.81;3145220;28;20067;-73
2022/12/16 02:05:54;;;;;;;70.68;29.50;;;;;;;5.80;82.50;99739.19;3144962;28;20049;-74
2022/12/16 02:07:26;;;;;;;61.53;28.17;;;;;;;5.73;82.57;99730.72;3145026;28;20102;-73
2022/12/16 02:09:02;;;;;;;65.45;28.45;;;;;;;5.79;82.63;99752.97;3145158;28;20078;-73
2022/12/16 02:10:49;;;;;;;66.63;28.92;;;;;;;5.77;82.54;99752.16;3145333;28;20048;-73
2022/12/16 02:12:29;;;;;;;62.30;26.95;;;;;;;5.70;82.79;99736.81;3145613;28;20231;-72
2022/12/16 02:14:22;;;;;;;68.45;29.88;;;;;;;5.71;82.92;99742.84;3144876;28;20150;-73
2022/12/16 02:16:05;;;;;;;61.80;27.65;;;;;;;5.70;83.20;99754.06;3135748;28;20078;-73
2022/12/16 02:17:47;;;;;;;64.18;28.50;;;;;;;5.62;82.93;99737.91;3132640;28;20202;-73
2022/12/16 02:19:45;;;;;;;70.40;30.55;;;;;;;5.66;82.93;99748.13;3133163;28;20061;-73
2022/12/16 02:21:33;;;;;;;61.38;28.40;;;;;;;5.62;83.11;99746.53;3136079;28;20453;-73
2022/12/16 02:23:35;;;;;;;67.65;29.75;;;;;;;5.61;83.05;99746.53;3145141;28;20109;-73
2022/12/16 02:25:37;;;;;;;57.58;26.92;;;;;;;5.53;83.21;99727.81;3145118;28;20496;-73
2022/12/16 02:27:40;;;;;;;72.95;29.48;;;;;;;5.53;83.16;99723.50;3145130;28;20533;-73
2022/12/16 02:29:35;;;;;;;76.32;29.00;;;;;;;5.58;83.19;99734.56;3144983;28;20049;-73
2022/12/16 02:31:21;;;;;;;80.72;30.65;;;;;;;5.59;83.23;99745.72;3145025;28;20051;-73
2022/12/16 02:33:03;;;;;;;74.75;30.63;;;;;;;5.49;83.43;99729.63;3145110;28;20098;-74
2022/12/16 02:34:46;;;;;;;90.22;29.48;;;;;;;5.58;83.39;99738.88;3145932;28;20472;-73
2022/12/16 02:36:29;;;;;;;81.43;29.55;;;;;;;5.48;83.42;99726.19;3149380;28;20158;-73
2022/12/16 02:38:13;;;;;;;83.38;30.55;;;;;;;5.42;83.60;99715.19;3150217;28;20541;-74
2022/12/16 02:39:50;;;;;;;91.57;29.48;;;;;;;5.57;83.44;99739.78;3146104;28;20079;-74
2022/12/16 02:41:29;;;;;;;84.28;29.25;;;;;;;5.55;83.52;99749.28;3144999;28;20051;-74
2022/12/16 02:43:07;;;;;;;80.28;31.23;;;;;;;5.48;83.50;99748.59;3145098;28;20056;-73
2022/12/16 02:44:45;;;;;;;83.82;30.25;;;;;;;5.45;83.73;99738.34;3144805;28;20196;-74
2022/12/16 02:46:21;;;;;;;79.25;30.58;;;;;;;5.51;83.73;99758.84;3141457;28;20177;-74
2022/12/16 02:47:53;;;;;;;78.32;29.80;;;;;;;5.43;83.71;99742.69;3144725;28;20139;-74
2022/12/16 02:49:47;;;;;;;77.93;30.55;;;;;;;5.50;83.78;99756.28;3144731;28;20052;-74
2022/12/16 02:51:20;;;;;;;69.60;28.70;;;;;;;5.47;83.99;99760.69;3143932;28;20060;-73
2022/12/16 02:52:53;;;;;;;86.03;32.13;;;;;;;5.47;83.91;99758.09;3132305;28;20060;-74
2022/12/16 02:54:26;;;;;;;75.43;30.98;;;;;;;5.26;84.01;99719.88;3141858;28;20044;-73
2022/12/16 02:56:06;;;;;;;83.57;33.75;;;;;;;5.37;83.95;99740.25;3144360;28;20057;-73
2022/12/16 02:58:00;;;;;;;80.57;30.67;;;;;;;5.39;83.95;99739.34;3144604;28;20478;-73
2022/12/16 02:59:41;;;;;;;78.28;31.80;;;;;;;5.42;84.21;99748.75;3140318;28;20534;-74
2022/12/16 03:01:19;;;;;;;82.35;31.77;;;;;;;5.43;84.28;99745.28;3132011;28;20507;-74
2022/12/16 03:03:00;;;;;;;86.25;31.73;;;;;;;4.95;84.13;99663.84;3142281;28;20052;-74
2022/12/16 03:04:38;;;;;;;76.97;31.73;;;;;;;5.39;84.22;99731.59;3144852;28;20080;-74
2022/12/16 03:06:14;;;;;;;79.05;30.60;;;;;;;5.19;84.14;99702.84;3144354;28;20044;-74
2022/12/16 03:07:47;;;;;;;79.15;32.15;;;;;;;5.35;84.12;99732.53;3144008;28;20045;-73
2022/12/16 03:09:24;;;;;;;76.13;31.08;;;;;;;5.40;84.18;99741.03;3144285;28;20444;-73
2022/12/16 03:10:59;;;;;;;75.82;30.42;;;;;;;5.39;84.24;99734.19;3144180;28;20105;-73
2022/12/16 03:12:34;;;;;;;71.55;29.17;;;;;;;5.30;84.25;99729.25;3144631;28;20466;-74
2022/12/16 03:14:10;;;;;;;72.88;30.15;;;;;;;5.37;84.14;99745.44;3144705;28;20052;-73
2022/12/16 03:15:43;;;;;;;76.53;31.13;;;;;;;5.38;84.20;99744.53;3144271;28;20056;-74
2022/12/16 03:17:17;;;;;;;87.55;33.42;;;;;;;5.37;84.05;99746.28;3144679;28;20051;-74
2022/12/16 03:18:52;;;;;;;;;;;;;;;5.29;83.97;99742.19;3145341;28;20056;-74
2022/12/16 03:20:30;;;;;;;71.68;28.73;;;;;;;5.22;84.11;99732.00;3145637;28;19920;-73
2022/12/16 03:22:07;;;;;;;75.65;29.58;;;;;;;4.74;84.01;99662.63;3144464;28;20493;-73
2022/12/16 03:23:45;;;;;;;69.78;28.77;;;;;;;5.22;84.01;99739.75;3144444;28;20060;-74
2022/12/16 03:25:18;;;;;;;60.05;28.05;;;;;;;5.30;83.96;99744.75;3144469;28;20048;-73
2022/12/16 03:26:55;;;;;;;;;;;;;;;5.22;83.94;99751.81;3144889;28;20764;-75
2022/12/16 03:28:39;;;;;;;66.15;27.13;;;;;;;5.10;84.10;99731.47;3144257;28;19920;-74
2022/12/16 03:30:16;;;;;;;68.90;29.70;;;;;;;5.18;84.19;99756.22;3144399;28;20052;-75
2022/12/16 03:31:51;;;;;;;60.80;29.35;;;;;;;5.17;84.17;99748.50;3144315;28;20044;-75
2022/12/16 03:33:28;;;;;;;60.30;27.42;;;;;;;5.27;84.08;99764.63;3144178;28;20048;-75
2022/12/16 03:35:12;;;;;;;56.35;26.98;;;;;;;5.07;84.04;99737.53;3144124;28;20048;-75
2022/12/16 03:36:49;;;;;;;66.95;28.20;;;;;;;5.04;84.33;99724.72;3144384;28;20529;-75
2022/12/16 03:38:22;;;;;;;56.53;26.38;;;;;;;5.25;84.27;99762.91;3144315;28;20453;-75
2022/12/16 03:39:58;;;;;;;62.75;28.27;;;;;;;5.20;84.30;99761.31;3144308;28;20044;-76
2022/12/16 03:41:31;;;;;;;59.75;27.52;;;;;;;5.25;84.30;99764.66;3144438;28;20052;-75
2022/12/16 03:43:04;;;;;;;59.05;27.02;;;;;;;5.27;84.17;99777.53;3144166;28;20454;-75
2022/12/16 03:44:36;;;;;;;51.35;25.85;;;;;;;5.27;84.07;99782.72;3140088;28;20437;-76
2022/12/16 03:46:08;;;;;;;52.22;25.67;;;;;;;5.29;84.19;99768.00;3143612;28;20230;-75
2022/12/16 03:47:40;;;;;;;58.13;28.33;;;;;;;5.30;84.15;99773.16;3144004;28;20044;-76
2022/12/16 03:49:12;;;;;;;54.95;25.80;;;;;;;5.30;84.16;99774.88;3144178;28;20044;-77
2022/12/16 03:50:45;;;;;;;47.05;25.10;;;;;;;5.25;84.11;99773.25;3144299;28;20098;-75
2022/12/16 03:52:17;;;;;;;47.67;25.77;;;;;;;5.26;84.12;99779.25;3144524;28;20093;-77
2022/12/16 03:53:49;;;;;;;44.08;23.55;;;;;;;5.23;84.25;99771.56;3143837;28;20212;-76
2022/12/16 03:55:21;;;;;;;43.90;22.75;;;;;;;5.32;84.14;99791.16;3143130;28;20063;-77
2022/12/16 03:56:52;;;;;;;52.40;22.92;;;;;;;5.21;84.19;99787.13;3144089;28;20052;-76
2022/12/16 03:58:24;;;;;;;45.20;22.02;;;;;;;5.31;84.01;99795.50;3144302;28;20044;-77
2022/12/16 03:59:56;;;;;;;41.20;21.52;;;;;;;5.31;83.99;99792.06;3143347;28;20055;-77
2022/12/16 04:01:28;;;;;;;42.92;21.88;;;;;;;5.28;84.14;99789.56;3134993;28;20052;-77
2022/12/16 04:02:59;;;;;;;40.80;20.67;;;;;;;5.24;84.09;99784.47;3145637;28;20052;-75
2022/12/16 04:04:31;;;;;;;40.97;21.95;;;;;;;5.22;84.11;99775.91;3144352;28;20494;-76
2022/12/16 04:06:04;;;;;;;44.40;21.27;;;;;;;5.01;84.22;99735.94;3144271;28;20060;-76
2022/12/16 04:07:35;;;;;;;40.22;20.27;;;;;;;5.21;84.15;99773.38;3143805;28;20569;-76
2022/12/16 04:09:07;;;;;;;42.67;19.42;;;;;;;5.21;84.23;99775.94;3144171;28;20483;-76
2022/12/16 04:25:23;;;;;;;41.33;20.90;;;;;;;4.89;84.32;99713.03;3143979;28;20052;-74
2022/12/16 04:28:44;;;;;;;36.83;19.08;;;;;;;5.26;84.59;99781.84;3144159;28;20094;-74
2022/12/16 04:30:20;;;;;;;38.53;19.38;;;;;;;5.28;84.69;99786.97;3143779;28;20059;-74
2022/12/16 04:31:52;;;;;;;41.78;19.70;;;;;;;5.30;84.66;99790.38;3143541;28;20452;-75
